Time;durP1;ratioP1;P1;durP2;ratioP2;P2;SDS_P1;SDS_P2;PMS_P1;PMS_P2;Temp;Humidity;BMP_temperature;BMP_pressure;BME280_temperature;BME280_humidity;BME280_pressure;Samples;Min_cycle;Max_cycle;Signal;HPM_P1;HPM_P2
2021/05/13 00:00:47;;;;;;;476.25;216.63;;;;;;;;;;5087326;28;20831;-73
2021/05/13 00:03:13;;;;;;;441.42;148.40;;;;;;;;;;5110949;28;20193;-74
2021/05/13 00:05:39;;;;;;;440.07;139.47;;;;;;;;;;5096609;28;20171;-73
2021/05/13 00:08:05;;;;;;;438.07;146.60;;;;;;;;;;5098546;28;20432;-79
2021/05/13 00:10:31;;;;;;;426.73;133.48;;;;;;;;;;5095413;28;20394;-76
2021/05/13 00:13:00;;;;;;;410.08;131.98;;;;;;;;;;5081770;28;20176;-78
2021/05/13 00:15:28;;;;;;;443.10;227.10;;;;;;;;;;5090029;28;20173;-77
2021/05/13 00:17:54;;;;;;;178.17;148.33;;;;;;;;;;5085384;28;20288;-77
2021/05/13 00:20:24;;;;;;;463.17;150.47;;;;;;;;;;5068540;28;20396;-77
2021/05/13 00:22:50;;;;;;;452.40;144.60;;;;;;;;;;5094417;28;20433;-78
2021/05/13 00:25:17;;;;;;;149.57;137.57;;;;;;;;;;5079435;28;20408;-78
2021/05/13 00:27:43;;;;;;;38.27;35.73;;;;;;;;;;5078504;28;20414;-75
2021/05/13 00:30:09;;;;;;;402.30;157.00;;;;;;;;;;5073623;28;20387;-72
2021/05/13 00:32:39;;;;;;;1.90;1.80;;;;;;;;;;5089154;28;20414;-74
2021/05/13 00:35:09;;;;;;;47.37;44.97;;;;;;;;;;5092929;28;20484;-73
2021/05/13 00:37:35;;;;;;;449.00;166.27;;;;;;;;;;5114695;28;20418;-73
2021/05/13 00:40:01;;;;;;;31.00;13.73;;;;;;;;;;5114118;28;20393;-73
2021/05/13 00:42:27;;;;;;;456.43;171.33;;;;;;;;;;5095432;28;20448;-72
2021/05/13 00:44:54;;;;;;;383.87;224.67;;;;;;;;;;5095997;28;20431;-73
2021/05/13 00:47:20;;;;;;;398.43;158.73;;;;;;;;;;5114091;28;20412;-73
2021/05/13 00:49:46;;;;;;;341.93;232.90;;;;;;;;;;5094272;28;20379;-73
2021/05/13 00:52:13;;;;;;;463.93;237.57;;;;;;;;;;5093675;28;20397;-73
2021/05/13 00:54:40;;;;;;;326.93;208.40;;;;;;;;;;5093871;28;20973;-74
2021/05/13 00:57:07;;;;;;;3.23;2.00;;;;;;;;;;5075368;28;20416;-72
2021/05/13 00:59:36;;;;;;;43.60;34.97;;;;;;;;;;5093220;28;20983;-73
2021/05/13 01:02:02;;;;;;;407.17;198.50;;;;;;;;;;5093959;28;20539;-73
2021/05/13 01:04:28;;;;;;;2.50;1.53;;;;;;;;;;5093929;28;20460;-73
2021/05/13 01:06:55;;;;;;;5.60;3.20;;;;;;;;;;5093487;28;20869;-74
2021/05/13 01:09:30;;;;;;;155.73;138.83;;;;;;;;;;5107989;28;20432;-71
2021/05/13 01:12:00;;;;;;;440.60;172.02;;;;;;;;;;5114118;28;20399;-73
2021/05/13 01:14:59;;;;;;;7.83;4.13;;;;;;;;;;5113803;28;20165;-73
2021/05/13 01:17:25;;;;;;;2.20;1.70;;;;;;;;;;5095412;28;21031;-73
2021/05/13 01:19:54;;;;;;;1.93;1.60;;;;;;;;;;5093065;28;20397;-73
2021/05/13 01:22:21;;;;;;;2.83;2.10;;;;;;;;;;5074740;28;20903;-72
2021/05/13 01:24:48;;;;;;;3.57;2.30;;;;;;;;;;5112324;28;20424;-73
2021/05/13 01:27:14;;;;;;;2.93;1.77;;;;;;;;;;5112924;28;20412;-72
2021/05/13 01:29:45;;;;;;;5.13;2.27;;;;;;;;;;5097311;28;20486;-72
2021/05/13 01:32:12;;;;;;;2.17;1.33;;;;;;;;;;5092430;28;20367;-72
2021/05/13 01:34:38;;;;;;;4.27;2.60;;;;;;;;;;5074649;28;20428;-71
2021/05/13 01:37:04;;;;;;;13.40;2.20;;;;;;;;;;5092774;28;20404;-72
2021/05/13 01:39:32;;;;;;;3.83;2.17;;;;;;;;;;5092408;28;20387;-71
2021/05/13 01:41:58;;;;;;;5.60;2.23;;;;;;;;;;5092714;28;20454;-72
2021/05/13 01:44:27;;;;;;;2.60;2.00;;;;;;;;;;5109946;28;20896;-72
2021/05/13 01:46:53;;;;;;;5.27;3.03;;;;;;;;;;5112941;28;20479;-72
2021/05/13 01:49:21;;;;;;;3.93;1.40;;;;;;;;;;5108683;28;20933;-73
2021/05/13 01:51:47;;;;;;;4.23;2.50;;;;;;;;;;5074402;28;20380;-73
2021/05/13 01:54:14;;;;;;;3.27;1.40;;;;;;;;;;5092667;28;20380;-74
2021/05/13 01:56:40;;;;;;;4.37;2.13;;;;;;;;;;5095016;28;20926;-74
2021/05/13 01:59:06;;;;;;;5.50;2.23;;;;;;;;;;5111099;28;20431;-73
2021/05/13 02:01:32;;;;;;;4.27;1.20;;;;;;;;;;5112616;28;20542;-73
2021/05/13 02:04:01;;;;;;;2.77;1.57;;;;;;;;;;5112216;28;20393;-72
2021/05/13 02:06:27;;;;;;;3.83;1.77;;;;;;;;;;5111228;28;20396;-72
2021/05/13 02:08:55;;;;;;;3.63;1.90;;;;;;;;;;5071723;28;20420;-74
2021/05/13 02:11:21;;;;;;;4.40;2.00;;;;;;;;;;5087030;28;20423;-74
2021/05/13 02:13:48;;;;;;;2.73;1.50;;;;;;;;;;5111296;28;20499;-74
2021/05/13 02:16:14;;;;;;;5.70;2.07;;;;;;;;;;5112316;28;20388;-74
2021/05/13 02:18:40;;;;;;;5.00;2.63;;;;;;;;;;5113915;28;20784;-78
2021/05/13 02:21:06;;;;;;;3.50;1.80;;;;;;;;;;5099092;28;20430;-74
2021/05/13 02:23:34;;;;;;;3.13;2.30;;;;;;;;;;5074064;28;20560;-74
2021/05/13 02:26:03;;;;;;;7.80;2.30;;;;;;;;;;5091896;28;20376;-74
2021/05/13 02:28:29;;;;;;;3.13;1.83;;;;;;;;;;5092135;28;20420;-74
2021/05/13 02:30:57;;;;;;;4.20;2.70;;;;;;;;;;5077393;28;20763;-75
2021/05/13 02:33:23;;;;;;;7.70;5.93;;;;;;;;;;5110831;28;20482;-74
2021/05/13 02:35:49;;;;;;;5.20;2.37;;;;;;;;;;5112046;28;20470;-74
2021/05/13 02:38:15;;;;;;;5.03;2.07;;;;;;;;;;5095912;28;20429;-74
2021/05/13 02:40:44;;;;;;;10.13;2.33;;;;;;;;;;5091642;28;20421;-74
2021/05/13 02:43:10;;;;;;;3.43;2.90;;;;;;;;;;5072801;28;20446;-74
2021/05/13 02:45:36;;;;;;;1.93;1.43;;;;;;;;;;5091428;28;20377;-74
2021/05/13 02:48:03;;;;;;;1.50;1.00;;;;;;;;;;5102512;28;20428;-74
2021/05/13 02:50:29;;;;;;;3.67;3.07;;;;;;;;;;5095369;28;20381;-74
2021/05/13 02:52:55;;;;;;;4.53;2.73;;;;;;;;;;5094950;28;20401;-81
2021/05/13 02:55:21;;;;;;;5.50;2.07;;;;;;;;;;5080317;28;20477;-78
2021/05/13 02:57:49;;;;;;;2.23;2.03;;;;;;;;;;5104173;28;20557;-74
2021/05/13 03:00:19;;;;;;;3.40;3.00;;;;;;;;;;5111774;28;20387;-74
2021/05/13 03:02:45;;;;;;;3.77;1.77;;;;;;;;;;5110314;28;20463;-75
2021/05/13 03:05:13;;;;;;;4.93;3.53;;;;;;;;;;5111290;28;20409;-75
2021/05/13 03:07:44;;;;;;;3.50;2.30;;;;;;;;;;5111824;28;20395;-75
2021/05/13 03:10:19;;;;;;;7.43;2.33;;;;;;;;;;5109908;28;20400;-75
2021/05/13 03:12:47;;;;;;;9.90;2.20;;;;;;;;;;5111675;28;20414;-75
2021/05/13 03:15:13;;;;;;;2.00;1.47;;;;;;;;;;5109847;28;20408;-74
2021/05/13 03:17:41;;;;;;;4.50;2.70;;;;;;;;;;5107131;28;20427;-75
2021/05/13 03:20:08;;;;;;;7.43;3.63;;;;;;;;;;5091675;28;20480;-75
2021/05/13 03:22:34;;;;;;;7.67;2.57;;;;;;;;;;5091437;28;20468;-74
2021/05/13 03:25:06;;;;;;;4.17;1.77;;;;;;;;;;5091680;28;20384;-74
2021/05/13 03:30:25;;;;;;;4.70;2.83;;;;;;;;;;5074984;28;20425;-75
2021/05/13 03:32:54;;;;;;;5.43;2.07;;;;;;;;;;5111616;28;20387;-75
2021/05/13 03:35:20;;;;;;;3.83;2.07;;;;;;;;;;5117682;28;20751;-75
2021/05/13 03:37:46;;;;;;;3.37;2.47;;;;;;;;;;5118416;28;20766;-74
2021/05/13 03:40:12;;;;;;;11.63;2.80;;;;;;;;;;5116157;28;20432;-73
2021/05/13 03:42:38;;;;;;;7.13;2.43;;;;;;;;;;5115654;28;20464;-73
2021/05/13 03:45:05;;;;;;;3.53;2.00;;;;;;;;;;5116378;28;20391;-73
2021/05/13 03:47:31;;;;;;;10.93;3.83;;;;;;;;;;5097643;28;20431;-76
2021/05/13 03:49:57;;;;;;;8.93;2.70;;;;;;;;;;5112177;28;20427;-76
2021/05/13 03:52:23;;;;;;;5.63;2.87;;;;;;;;;;5116128;28;20387;-76
2021/05/13 03:54:49;;;;;;;7.97;4.07;;;;;;;;;;5115687;28;20425;-75
2021/05/13 03:57:15;;;;;;;4.33;1.90;;;;;;;;;;5120344;28;20396;-76
2021/05/13 03:59:42;;;;;;;2.93;1.80;;;;;;;;;;5100240;28;20395;-76
2021/05/13 04:04:37;;;;;;;1.87;1.67;;;;;;;;;;5117849;28;20414;-78
2021/05/13 04:07:04;;;;;;;1.77;1.63;;;;;;;;;;5115641;28;20382;-77
2021/05/13 04:09:30;;;;;;;1.90;1.63;;;;;;;;;;5116909;28;20969;-77
2021/05/13 04:11:56;;;;;;;7.57;2.83;;;;;;;;;;5115104;28;20768;-75
2021/05/13 04:14:23;;;;;;;4.97;3.13;;;;;;;;;;5095260;28;20848;-75
2021/05/13 04:16:57;;;;;;;3.03;2.30;;;;;;;;;;5076703;28;20405;-78
2021/05/13 04:19:23;;;;;;;3.00;2.17;;;;;;;;;;5109324;28;20422;-77
2021/05/13 04:21:49;;;;;;;3.40;1.90;;;;;;;;;;5114939;28;20546;-77
2021/05/13 04:24:18;;;;;;;1.67;1.33;;;;;;;;;;5113795;28;20407;-76
2021/05/13 04:26:44;;;;;;;2.17;2.07;;;;;;;;;;5105276;28;20428;-75
2021/05/13 04:29:10;;;;;;;4.53;1.80;;;;;;;;;;5093830;28;20922;-79
2021/05/13 04:31:37;;;;;;;4.17;1.93;;;;;;;;;;5094549;28;20902;-77
2021/05/13 04:34:03;;;;;;;3.10;1.60;;;;;;;;;;5094419;28;20412;-75
2021/05/13 04:36:29;;;;;;;5.90;3.00;;;;;;;;;;5075930;28;20436;-77
2021/05/13 04:38:55;;;;;;;13.53;4.50;;;;;;;;;;5105246;28;20846;-77
2021/05/13 04:41:21;;;;;;;21.70;16.20;;;;;;;;;;5114276;28;20408;-75
2021/05/13 04:43:47;;;;;;;3.67;1.93;;;;;;;;;;5114417;28;20390;-75
2021/05/13 04:46:15;;;;;;;2.50;1.30;;;;;;;;;;5114361;28;20400;-80
2021/05/13 04:49:26;;;;;;;2.53;1.33;;;;;;;;;;5116710;28;20447;-75
2021/05/13 04:51:28;;;;;;;6.60;1.90;;;;;;;;;;5089031;28;20496;-76
2021/05/13 04:53:55;;;;;;;3.13;1.53;;;;;;;;;;5075573;28;20542;-75
2021/05/13 04:56:21;;;;;;;2.23;2.00;;;;;;;;;;5098363;28;20404;-76
2021/05/13 04:58:48;;;;;;;218.43;155.40;;;;;;;;;;5115088;28;20420;-76
2021/05/13 05:01:14;;;;;;;6.30;2.60;;;;;;;;;;5095073;28;20947;-75
2021/05/13 05:03:40;;;;;;;48.73;44.53;;;;;;;;;;5112705;28;20447;-76
2021/05/13 05:06:06;;;;;;;1.67;1.27;;;;;;;;;;5112868;28;20750;-76
2021/05/13 05:08:35;;;;;;;2.40;1.63;;;;;;;;;;5096864;28;20419;-75
2021/05/13 05:11:02;;;;;;;71.30;64.43;;;;;;;;;;5072552;28;20543;-75
2021/05/13 05:13:29;;;;;;;16.83;15.43;;;;;;;;;;5120870;22;20531;-71
2021/05/13 05:15:56;;;;;;;0.90;0.60;;;;;;;;;;5079913;28;20758;-71
2021/05/13 05:18:22;;;;;;;42.70;32.83;;;;;;;;;;5098428;28;20435;-72
2021/05/13 05:20:49;;;;;;;207.13;130.00;;;;;;;;;;5097120;28;20392;-72
2021/05/13 05:23:15;;;;;;;335.83;198.37;;;;;;;;;;5080618;28;20448;-73
2021/05/13 05:25:42;;;;;;;3.40;1.33;;;;;;;;;;5120054;22;20984;-66
2021/05/13 05:28:08;;;;;;;308.67;125.87;;;;;;;;;;5090175;28;20387;-69
2021/05/13 05:30:35;;;;;;;412.67;148.20;;;;;;;;;;5091067;28;20405;-70
2021/05/13 05:33:02;;;;;;;190.87;171.33;;;;;;;;;;5092161;28;21022;-70
2021/05/13 05:35:28;;;;;;;268.63;195.17;;;;;;;;;;5092105;28;20421;-69
2021/05/13 05:37:54;;;;;;;11.03;9.50;;;;;;;;;;5074264;28;20902;-68
2021/05/13 05:40:24;;;;;;;484.00;252.93;;;;;;;;;;5091511;28;20412;-69
2021/05/13 05:42:50;;;;;;;1.63;1.53;;;;;;;;;;5068750;28;20482;-69
2021/05/13 05:45:17;;;;;;;285.60;154.00;;;;;;;;;;5082524;28;20824;-70
2021/05/13 05:47:43;;;;;;;267.07;177.20;;;;;;;;;;5082734;28;20424;-68
2021/05/13 05:50:10;;;;;;;2.27;2.07;;;;;;;;;;5090932;28;20424;-70
2021/05/13 05:52:36;;;;;;;418.47;180.73;;;;;;;;;;5091740;28;20440;-69
2021/05/13 05:55:02;;;;;;;178.07;159.30;;;;;;;;;;5092403;28;20425;-68
2021/05/13 05:57:28;;;;;;;385.67;174.63;;;;;;;;;;5092191;28;20421;-69
2021/05/13 05:59:55;;;;;;;122.27;114.13;;;;;;;;;;5091911;28;20535;-71
2021/05/13 06:02:21;;;;;;;119.27;111.33;;;;;;;;;;5091675;28;20439;-70
2021/05/13 06:04:47;;;;;;;113.83;106.47;;;;;;;;;;5091748;28;20401;-69
2021/05/13 06:07:13;;;;;;;327.67;170.87;;;;;;;;;;5071537;28;20433;-68
2021/05/13 06:09:39;;;;;;;450.20;163.33;;;;;;;;;;5081404;28;20406;-69
2021/05/13 06:12:05;;;;;;;456.23;135.67;;;;;;;;;;5072441;28;20471;-68
2021/05/13 06:14:31;;;;;;;440.53;128.43;;;;;;;;;;5084082;28;20432;-68
2021/05/13 06:16:57;;;;;;;436.10;125.07;;;;;;;;;;5081919;28;20937;-69
2021/05/13 06:19:23;;;;;;;462.30;154.43;;;;;;;;;;5088986;28;20401;-68
2021/05/13 06:21:49;;;;;;;457.73;157.63;;;;;;;;;;5072268;28;20445;-69
2021/05/13 06:24:15;;;;;;;436.07;127.37;;;;;;;;;;5090063;28;20409;-68
2021/05/13 06:26:41;;;;;;;439.95;133.70;;;;;;;;;;5091293;28;20852;-69
2021/05/13 06:29:07;;;;;;;427.23;120.70;;;;;;;;;;5090654;28;20166;-68
2021/05/13 06:31:34;;;;;;;433.00;127.13;;;;;;;;;;5091105;28;20478;-68
2021/05/13 06:34:00;;;;;;;424.25;119.57;;;;;;;;;;5072623;28;20171;-68
2021/05/13 06:36:27;;;;;;;424.77;125.70;;;;;;;;;;5091020;28;20220;-69
2021/05/13 06:38:53;;;;;;;419.80;122.05;;;;;;;;;;5073132;28;20170;-70
2021/05/13 06:41:19;;;;;;;430.70;134.90;;;;;;;;;;5090498;28;20171;-68
2021/05/13 06:43:45;;;;;;;413.30;174.37;;;;;;;;;;5090924;28;20172;-69
2021/05/13 06:46:11;;;;;;;424.17;130.87;;;;;;;;;;5077494;28;20436;-68
2021/05/13 06:48:39;;;;;;;411.33;124.75;;;;;;;;;;5080091;28;20405;-70
2021/05/13 06:51:05;;;;;;;456.37;208.20;;;;;;;;;;5090792;28;20185;-67
2021/05/13 06:53:31;;;;;;;483.47;235.70;;;;;;;;;;5090794;28;20394;-68
2021/05/13 06:55:57;;;;;;;2.87;1.47;;;;;;;;;;5090764;28;20414;-69
2021/05/13 06:58:23;;;;;;;116.43;103.60;;;;;;;;;;5090687;28;20409;-68
2021/05/13 07:00:49;;;;;;;100.07;43.23;;;;;;;;;;5089494;28;20851;-69
2021/05/13 07:03:16;;;;;;;1.57;1.43;;;;;;;;;;5090359;28;20529;-69
2021/05/13 07:05:42;;;;;;;100.70;89.77;;;;;;;;;;5090658;28;20626;-73
2021/05/13 07:08:09;;;;;;;191.80;171.97;;;;;;;;;;5065448;28;20411;-70
2021/05/13 07:10:35;;;;;;;36.27;34.17;;;;;;;;;;5087723;28;20435;-70
2021/05/13 07:13:01;;;;;;;190.27;177.17;;;;;;;;;;5090429;28;20376;-70
2021/05/13 07:15:27;;;;;;;356.07;208.67;;;;;;;;;;5090254;28;20467;-69
2021/05/13 07:17:53;;;;;;;0.90;0.70;;;;;;;;;;5090754;28;20417;-69
2021/05/13 07:20:21;;;;;;;3.30;1.27;;;;;;;;;;5090420;28;20367;-70
2021/05/13 07:22:47;;;;;;;83.43;46.93;;;;;;;;;;5072977;28;20474;-70
2021/05/13 07:25:13;;;;;;;268.83;250.07;;;;;;;;;;5090258;28;20405;-70
2021/05/13 07:27:39;;;;;;;171.73;153.63;;;;;;;;;;5090481;28;20792;-70
2021/05/13 07:30:05;;;;;;;437.67;128.30;;;;;;;;;;5091299;28;20492;-70
2021/05/13 07:32:31;;;;;;;75.80;23.57;;;;;;;;;;5094539;28;20190;-70
2021/05/13 07:34:57;;;;;;;2.67;1.10;;;;;;;;;;5094995;28;20372;-69
2021/05/13 07:37:25;;;;;;;121.37;52.37;;;;;;;;;;5094403;28;20445;-71
2021/05/13 07:39:51;;;;;;;325.42;109.50;;;;;;;;;;5094392;28;20454;-70
2021/05/13 07:42:16;;;;;;;432.63;229.93;;;;;;;;;;5094075;28;20616;-70
2021/05/13 07:44:42;;;;;;;425.83;297.73;;;;;;;;;;5094593;28;20903;-71
2021/05/13 07:47:10;;;;;;;506.70;222.37;;;;;;;;;;5094675;28;20422;-70
2021/05/13 07:49:36;;;;;;;67.23;60.10;;;;;;;;;;5094433;28;20397;-69
2021/05/13 07:52:03;;;;;;;387.53;285.30;;;;;;;;;;5094686;28;20469;-70
2021/05/13 07:54:29;;;;;;;43.10;21.00;;;;;;;;;;5092962;28;20409;-72
2021/05/13 07:56:55;;;;;;;509.67;244.93;;;;;;;;;;5092252;28;20433;-70
2021/05/13 07:59:21;;;;;;;456.17;175.57;;;;;;;;;;5093301;28;20528;-70
2021/05/13 08:01:47;;;;;;;422.70;130.52;;;;;;;;;;5094627;28;20183;-70
2021/05/13 08:04:12;;;;;;;409.27;123.60;;;;;;;;;;5092344;28;20228;-70
2021/05/13 08:06:38;;;;;;;433.17;144.43;;;;;;;;;;5084758;28;20184;-69
2021/05/13 08:09:05;;;;;;;367.70;333.03;;;;;;;;;;5085324;28;20702;-70
2021/05/13 08:11:30;;;;;;;415.10;372.83;;;;;;;;;;5087983;28;20506;-71
2021/05/13 08:13:56;;;;;;;293.37;274.10;;;;;;;;;;5083597;28;20397;-70
2021/05/13 08:16:23;;;;;;;539.97;283.17;;;;;;;;;;5085265;28;20492;-71
2021/05/13 08:18:49;;;;;;;547.03;312.47;;;;;;;;;;5083539;28;20402;-70
2021/05/13 08:21:15;;;;;;;527.83;282.03;;;;;;;;;;5084173;28;20877;-70
2021/05/13 08:23:41;;;;;;;540.60;288.83;;;;;;;;;;5087312;28;20464;-69
2021/05/13 08:26:07;;;;;;;543.90;299.80;;;;;;;;;;5084892;28;20939;-70
2021/05/13 08:28:33;;;;;;;492.40;215.03;;;;;;;;;;5066165;28;20414;-71
2021/05/13 08:30:58;;;;;;;407.10;353.23;;;;;;;;;;5085115;28;20402;-70
2021/05/13 08:33:24;;;;;;;3.03;1.37;;;;;;;;;;5082816;28;20374;-70
2021/05/13 08:35:50;;;;;;;464.50;186.63;;;;;;;;;;5084849;28;20419;-70
2021/05/13 08:38:17;;;;;;;469.87;264.40;;;;;;;;;;5065828;28;20394;-70
2021/05/13 08:40:43;;;;;;;472.42;188.82;;;;;;;;;;5083724;28;20473;-70
2021/05/13 08:43:25;;;;;;;456.17;180.93;;;;;;;;;;5083379;28;20192;-70
2021/05/13 08:45:52;;;;;;;436.83;162.25;;;;;;;;;;5084709;28;20421;-70
2021/05/13 08:48:18;;;;;;;347.10;241.60;;;;;;;;;;5077893;28;20168;-70
2021/05/13 08:50:44;;;;;;;77.47;67.97;;;;;;;;;;5064492;28;20401;-71
2021/05/13 08:53:10;;;;;;;70.90;57.77;;;;;;;;;;5093818;28;20428;-70
2021/05/13 08:55:36;;;;;;;0.80;0.60;;;;;;;;;;5075575;28;21021;-70
2021/05/13 08:58:02;;;;;;;3.27;1.07;;;;;;;;;;5093812;28;20404;-70
2021/05/13 09:00:28;;;;;;;1.10;0.80;;;;;;;;;;5091580;28;20416;-70
2021/05/13 09:02:54;;;;;;;8.20;3.03;;;;;;;;;;5092957;28;20583;-70
2021/05/13 09:05:22;;;;;;;4.60;1.33;;;;;;;;;;5092740;28;20452;-70
2021/05/13 09:07:48;;;;;;;2.97;1.93;;;;;;;;;;5097881;28;20392;-71
2021/05/13 09:10:15;;;;;;;4.20;2.07;;;;;;;;;;5103465;28;20475;-70
2021/05/13 09:12:47;;;;;;;3.40;0.97;;;;;;;;;;5106628;28;20774;-70
2021/05/13 09:15:15;;;;;;;6.93;1.03;;;;;;;;;;5094950;28;20476;-70
2021/05/13 09:17:43;;;;;;;1.27;1.17;;;;;;;;;;5083065;28;20409;-71
2021/05/13 09:20:29;;;;;;;5.90;2.97;;;;;;;;;;5092692;28;20408;-70
2021/05/13 09:23:15;;;;;;;1.80;1.30;;;;;;;;;;5092666;28;20555;-71
2021/05/13 09:25:45;;;;;;;3.10;1.40;;;;;;;;;;5081648;28;20508;-70
2021/05/13 09:28:12;;;;;;;2.57;1.53;;;;;;;;;;5101414;28;20562;-70
2021/05/13 09:30:38;;;;;;;1.30;0.83;;;;;;;;;;5097051;28;20421;-70
2021/05/13 09:33:05;;;;;;;1.67;1.13;;;;;;;;;;5090993;28;20919;-70
2021/05/13 09:35:33;;;;;;;1.63;1.03;;;;;;;;;;5084123;28;20405;-70
2021/05/13 09:38:01;;;;;;;2.37;1.07;;;;;;;;;;5086602;28;20474;-68
2021/05/13 09:40:52;;;;;;;3.13;2.30;;;;;;;;;;5078920;28;20416;-69
2021/05/13 09:43:22;;;;;;;4.20;2.93;;;;;;;;;;5081093;28;20979;-70
2021/05/13 09:45:52;;;;;;;1.93;1.50;;;;;;;;;;5078205;28;20460;-71
2021/05/13 09:48:33;;;;;;;3.20;1.57;;;;;;;;;;5083585;28;20425;-70
2021/05/13 09:51:16;;;;;;;1.77;0.97;;;;;;;;;;5102272;28;20392;-70
2021/05/13 09:53:42;;;;;;;1.50;1.30;;;;;;;;;;5111732;28;21073;-70
2021/05/13 09:56:23;;;;;;;2.03;1.23;;;;;;;;;;5090472;28;20894;-69
2021/05/13 09:58:50;;;;;;;1.10;0.80;;;;;;;;;;5088218;28;20394;-69
2021/05/13 10:01:16;;;;;;;1.93;1.30;;;;;;;;;;5098521;28;20401;-69
2021/05/13 10:03:43;;;;;;;2.20;1.20;;;;;;;;;;5106467;28;20423;-69
2021/05/13 10:06:12;;;;;;;1.53;0.87;;;;;;;;;;5100106;28;20800;-69
2021/05/13 10:08:44;;;;;;;1.13;1.00;;;;;;;;;;5104907;28;20386;-67
2021/05/13 10:11:11;;;;;;;4.27;2.07;;;;;;;;;;5095681;28;20407;-69
2021/05/13 10:13:37;;;;;;;0.90;0.80;;;;;;;;;;5108560;28;20949;-68
2021/05/13 10:16:03;;;;;;;2.93;1.33;;;;;;;;;;5079530;28;20527;-70
2021/05/13 10:18:32;;;;;;;3.63;1.13;;;;;;;;;;5103568;28;20441;-69
2021/05/13 10:21:04;;;;;;;1.00;0.83;;;;;;;;;;5107550;28;20455;-68
2021/05/13 10:23:30;;;;;;;4.80;2.00;;;;;;;;;;5075708;28;20431;-68
2021/05/13 10:25:56;;;;;;;1.40;0.90;;;;;;;;;;5098449;28;20428;-69
2021/05/13 10:28:32;;;;;;;1.53;1.07;;;;;;;;;;5100510;28;20779;-70
2021/05/13 10:31:06;;;;;;;1.00;0.70;;;;;;;;;;5106519;28;20837;-70
2021/05/13 10:33:49;;;;;;;2.60;2.00;;;;;;;;;;5082879;28;20378;-71
2021/05/13 10:36:16;;;;;;;2.80;1.20;;;;;;;;;;5100747;28;20418;-71
2021/05/13 10:39:08;;;;;;;2.30;2.10;;;;;;;;;;5105104;28;20378;-71
2021/05/13 10:41:38;;;;;;;2.73;2.00;;;;;;;;;;5077410;28;20416;-70
2021/05/13 10:44:04;;;;;;;1.87;1.00;;;;;;;;;;5108266;28;20396;-71
2021/05/13 10:46:31;;;;;;;1.10;0.97;;;;;;;;;;5089076;28;20435;-71
2021/05/13 10:49:15;;;;;;;3.03;1.57;;;;;;;;;;5107592;28;20451;-69
2021/05/13 10:51:42;;;;;;;1.47;1.37;;;;;;;;;;5088397;28;20427;-69
2021/05/13 10:54:08;;;;;;;1.77;1.33;;;;;;;;;;5090579;28;20394;-69
2021/05/13 10:56:37;;;;;;;1.00;0.90;;;;;;;;;;5090885;28;20413;-69
2021/05/13 10:59:09;;;;;;;1.73;1.20;;;;;;;;;;5091113;28;20764;-69
2021/05/13 11:01:56;;;;;;;3.10;1.40;;;;;;;;;;5090234;28;20406;-69
2021/05/13 11:06:48;;;;;;;1.53;1.37;;;;;;;;;;5090485;28;20424;-69
2021/05/13 11:09:33;;;;;;;1.20;0.93;;;;;;;;;;5090135;28;20414;-69
2021/05/13 11:12:15;;;;;;;1.77;1.20;;;;;;;;;;5090410;28;20416;-69
2021/05/13 11:20:25;;;;;;;3.40;1.57;;;;;;;;;;5089997;28;20440;-69
2021/05/13 11:22:55;;;;;;;2.53;1.60;;;;;;;;;;5070120;28;20447;-70
2021/05/13 11:25:21;;;;;;;1.47;1.13;;;;;;;;;;5089976;28;20388;-70
2021/05/13 11:27:48;;;;;;;1.53;1.00;;;;;;;;;;5113946;22;20380;-71
2021/05/13 11:30:14;;;;;;;0.93;0.60;;;;;;;;;;5088662;28;20425;-70
2021/05/13 11:32:40;;;;;;;1.60;1.50;;;;;;;;;;5105677;28;20403;-72
2021/05/13 11:35:07;;;;;;;4.23;1.53;;;;;;;;;;5104071;28;20891;-71
2021/05/13 11:37:32;;;;;;;1.57;1.40;;;;;;;;;;5108150;28;20416;-70
2021/05/13 11:40:17;;;;;;;1.73;1.40;;;;;;;;;;5087373;28;20425;-69
2021/05/13 11:42:43;;;;;;;1.63;0.97;;;;;;;;;;5069251;28;20467;-73
2021/05/13 11:45:23;;;;;;;2.30;1.27;;;;;;;;;;5088311;28;20398;-70
2021/05/13 11:47:49;;;;;;;2.20;1.67;;;;;;;;;;5086760;28;20411;-74
2021/05/13 11:50:29;;;;;;;1.17;1.07;;;;;;;;;;5087264;28;20466;-71
2021/05/13 11:53:11;;;;;;;1.17;0.70;;;;;;;;;;5086386;28;20404;-71
2021/05/13 11:55:40;;;;;;;1.67;0.93;;;;;;;;;;5087612;28;20404;-71
2021/05/13 11:58:06;;;;;;;0.90;0.80;;;;;;;;;;5087994;28;20449;-71
2021/05/13 12:00:32;;;;;;;2.50;1.77;;;;;;;;;;5087213;28;20398;-69
2021/05/13 12:03:08;;;;;;;1.83;1.20;;;;;;;;;;5084742;28;20601;-69
2021/05/13 12:05:44;;;;;;;3.53;0.97;;;;;;;;;;5086236;28;20387;-72
2021/05/13 12:08:10;;;;;;;1.10;0.90;;;;;;;;;;5086414;28;20515;-70
2021/05/13 12:10:36;;;;;;;1.03;0.93;;;;;;;;;;5085598;28;20433;-71
2021/05/13 12:13:03;;;;;;;1.20;1.10;;;;;;;;;;5086291;28;20505;-70
2021/05/13 12:15:29;;;;;;;2.00;0.80;;;;;;;;;;5087362;28;20402;-69
2021/05/13 12:17:55;;;;;;;2.03;1.13;;;;;;;;;;5087849;28;20386;-71
2021/05/13 12:20:21;;;;;;;1.33;0.90;;;;;;;;;;5079275;28;20410;-71
2021/05/13 12:22:47;;;;;;;0.90;0.70;;;;;;;;;;5071296;28;20416;-69
2021/05/13 12:25:13;;;;;;;1.63;1.07;;;;;;;;;;5071440;28;20987;-70
2021/05/13 12:27:39;;;;;;;1.37;1.13;;;;;;;;;;5058125;28;20433;-70
2021/05/13 12:30:05;;;;;;;0.97;0.87;;;;;;;;;;5082357;28;20421;-70
2021/05/13 12:32:32;;;;;;;1.53;1.40;;;;;;;;;;5079967;28;20412;-72
2021/05/13 12:34:58;;;;;;;1.67;0.97;;;;;;;;;;5081755;28;20462;-72
2021/05/13 12:37:24;;;;;;;1.87;1.00;;;;;;;;;;5080184;28;20410;-69
2021/05/13 12:39:50;;;;;;;1.33;1.07;;;;;;;;;;5080869;28;20533;-71
2021/05/13 12:42:23;;;;;;;3.27;0.77;;;;;;;;;;5081606;28;20900;-72
2021/05/13 12:44:49;;;;;;;1.13;1.00;;;;;;;;;;5083386;28;20459;-72
2021/05/13 12:47:16;;;;;;;2.50;1.17;;;;;;;;;;5081711;28;20433;-71
2021/05/13 12:49:43;;;;;;;2.17;1.00;;;;;;;;;;5082085;28;20452;-70
2021/05/13 12:52:10;;;;;;;2.50;0.93;;;;;;;;;;5080623;28;20466;-72
2021/05/13 12:54:40;;;;;;;1.87;1.37;;;;;;;;;;5081786;28;20410;-70
2021/05/13 12:57:16;;;;;;;3.20;1.83;;;;;;;;;;5082629;28;20424;-71
2021/05/13 12:59:43;;;;;;;1.30;1.17;;;;;;;;;;5081380;28;20468;-71
2021/05/13 13:02:09;;;;;;;2.70;1.87;;;;;;;;;;5082079;28;20445;-72
2021/05/13 13:04:48;;;;;;;2.60;0.90;;;;;;;;;;5085206;28;20417;-71
2021/05/13 13:07:14;;;;;;;2.53;1.37;;;;;;;;;;5086206;28;20520;-70
2021/05/13 13:09:40;;;;;;;1.00;0.80;;;;;;;;;;5092601;28;20418;-72
2021/05/13 13:12:09;;;;;;;1.40;1.30;;;;;;;;;;5092809;28;20393;-71
2021/05/13 13:14:37;;;;;;;3.00;1.33;;;;;;;;;;5092841;28;20412;-71
2021/05/13 13:17:17;;;;;;;1.60;0.93;;;;;;;;;;5092721;28;20441;-69
2021/05/13 13:20:04;;;;;;;2.20;1.00;;;;;;;;;;5089147;28;20454;-69
2021/05/13 13:22:32;;;;;;;1.07;0.80;;;;;;;;;;5085054;28;20536;-69
2021/05/13 13:25:05;;;;;;;1.20;1.07;;;;;;;;;;5094890;28;20462;-69
2021/05/13 13:27:37;;;;;;;1.77;1.30;;;;;;;;;;5093518;28;20399;-70
2021/05/13 13:30:04;;;;;;;1.87;1.60;;;;;;;;;;5095650;28;20411;-69
2021/05/13 13:32:30;;;;;;;2.10;1.37;;;;;;;;;;5096167;28;20400;-70
2021/05/13 13:35:03;;;;;;;1.60;1.30;;;;;;;;;;5095150;28;20425;-69
2021/05/13 13:37:29;;;;;;;7.20;1.40;;;;;;;;;;5094359;28;20466;-70
2021/05/13 13:39:55;;;;;;;2.57;2.20;;;;;;;;;;5095167;28;20891;-70
2021/05/13 13:42:23;;;;;;;3.47;1.60;;;;;;;;;;5095234;28;20503;-69
2021/05/13 13:44:49;;;;;;;2.50;1.80;;;;;;;;;;5095551;28;20448;-70
2021/05/13 13:47:15;;;;;;;2.17;1.47;;;;;;;;;;5095282;28;20383;-70
2021/05/13 13:49:41;;;;;;;2.93;1.83;;;;;;;;;;5093237;28;20425;-70
2021/05/13 13:52:07;;;;;;;3.43;2.47;;;;;;;;;;5093262;28;20492;-68
2021/05/13 13:54:33;;;;;;;1.90;1.47;;;;;;;;;;5093885;28;20409;-68
2021/05/13 13:56:59;;;;;;;1.43;1.10;;;;;;;;;;5093534;28;20391;-68
2021/05/13 13:59:25;;;;;;;4.00;1.93;;;;;;;;;;5092668;28;20502;-71
2021/05/13 14:01:50;;;;;;;2.63;1.80;;;;;;;;;;5090181;28;20824;-69
2021/05/13 14:04:19;;;;;;;1.93;1.30;;;;;;;;;;5090849;28;20483;-70
2021/05/13 14:06:47;;;;;;;8.20;1.53;;;;;;;;;;5088235;28;20435;-70
2021/05/13 14:09:15;;;;;;;1.40;1.30;;;;;;;;;;5091071;28;20419;-70
2021/05/13 14:11:41;;;;;;;1.40;1.10;;;;;;;;;;5092100;28;20372;-69
2021/05/13 14:14:07;;;;;;;1.50;0.90;;;;;;;;;;5092198;28;20401;-68
2021/05/13 14:16:33;;;;;;;1.20;1.03;;;;;;;;;;5065854;28;20387;-69
2021/05/13 14:18:59;;;;;;;1.20;0.90;;;;;;;;;;5085222;28;20410;-70
2021/05/13 14:21:25;;;;;;;1.30;1.17;;;;;;;;;;5091883;28;20404;-69
2021/05/13 14:23:56;;;;;;;1.13;0.80;;;;;;;;;;5089433;28;20499;-68
2021/05/13 14:26:22;;;;;;;2.50;2.10;;;;;;;;;;5075027;28;20392;-68
2021/05/13 14:28:48;;;;;;;3.80;1.67;;;;;;;;;;5092242;28;20437;-69
2021/05/13 14:31:14;;;;;;;2.20;1.20;;;;;;;;;;5091964;28;20773;-68
2021/05/13 14:33:40;;;;;;;2.60;1.30;;;;;;;;;;5093112;28;20406;-69
2021/05/13 14:36:06;;;;;;;3.13;1.90;;;;;;;;;;5091935;28;20410;-68
2021/05/13 14:38:32;;;;;;;3.17;2.27;;;;;;;;;;5091866;28;20404;-69
2021/05/13 14:40:58;;;;;;;1.53;1.40;;;;;;;;;;5091771;28;20440;-72
2021/05/13 14:43:26;;;;;;;3.03;1.93;;;;;;;;;;5092346;28;20426;-70
2021/05/13 14:45:52;;;;;;;1.70;1.60;;;;;;;;;;5092171;28;20504;-70